createdAt,value
2023-03-22T00:01:31.183Z,8.11
2023-03-22T00:03:59.211Z,8.09
2023-03-22T00:06:27.335Z,8.12
2023-03-22T00:08:55.579Z,8.04
2023-03-22T00:11:27.294Z,8.00
2023-03-22T00:13:55.029Z,7.97
2023-03-22T00:16:23.062Z,8.06
2023-03-22T00:18:51.417Z,7.99
2023-03-22T00:21:19.231Z,7.93
2023-03-22T00:23:47.036Z,7.92
2023-03-22T00:26:15.520Z,7.84
2023-03-22T00:28:43.550Z,7.87
2023-03-22T00:31:11.574Z,7.82
2023-03-22T00:33:39.420Z,8.04
2023-03-22T00:36:09.842Z,7.95
2023-03-22T00:38:42.996Z,7.79
2023-03-22T00:41:12.482Z,7.77
2023-03-22T00:43:40.727Z,7.72
2023-03-22T00:46:09.307Z,7.67
2023-03-22T00:48:37.100Z,7.56
2023-03-22T00:51:05.690Z,7.28
2023-03-22T00:53:34.336Z,7.32
2023-03-22T00:56:01.926Z,7.26
2023-03-22T00:58:30.798Z,7.18
2023-03-22T01:00:59.158Z,7.10
2023-03-22T01:03:28.069Z,7.12
2023-03-22T01:05:55.993Z,7.16
2023-03-22T01:08:24.313Z,7.09
2023-03-22T01:10:52.292Z,7.04
2023-03-22T01:13:20.165Z,6.96
2023-03-22T01:15:50.941Z,6.92
2023-03-22T01:18:18.943Z,6.86
2023-03-22T01:20:46.987Z,6.82
2023-03-22T01:23:14.656Z,6.75
2023-03-22T01:25:42.193Z,6.73
2023-03-22T01:28:10.347Z,6.74
2023-03-22T01:30:40.961Z,6.67
2023-03-22T01:33:09.357Z,6.60
2023-03-22T01:35:37.515Z,6.65
2023-03-22T01:38:05.788Z,6.69
2023-03-22T01:40:35.040Z,6.67
2023-03-22T01:43:03.471Z,6.58
2023-03-22T01:45:40.362Z,6.52
2023-03-22T01:48:15.001Z,6.53
2023-03-22T01:50:47.997Z,6.56
2023-03-22T01:53:19.064Z,6.44
2023-03-22T01:55:47.332Z,6.46
2023-03-22T01:58:18.084Z,6.39
2023-03-22T02:00:48.422Z,6.33
2023-03-22T02:03:22.246Z,6.33
2023-03-22T02:05:50.065Z,6.17
2023-03-22T02:08:18.095Z,6.01
2023-03-22T02:10:46.990Z,6.08
2023-03-22T02:13:29.988Z,6.05
2023-03-22T02:16:10.890Z,5.97
2023-03-22T02:18:39.210Z,5.97
2023-03-22T02:21:25.748Z,6.02
2023-03-22T02:24:25.246Z,5.93
2023-03-22T02:27:00.034Z,5.89
2023-03-22T02:29:46.003Z,5.98
2023-03-22T02:32:31.966Z,6.01
2023-03-22T02:35:21.240Z,5.90
2023-03-22T02:38:10.524Z,5.88
2023-03-22T02:41:03.584Z,5.85
2023-03-22T02:43:46.168Z,5.81
2023-03-22T02:46:42.976Z,5.85
2023-03-22T02:49:16.920Z,5.69
2023-03-22T02:52:12.471Z,5.77
2023-03-22T02:54:44.816Z,5.59
2023-03-22T02:57:17.801Z,5.57
2023-03-22T02:59:46.125Z,5.55
2023-03-22T03:02:17.394Z,5.51
2023-03-22T03:04:48.694Z,5.57
2023-03-22T03:07:19.545Z,5.57
2023-03-22T03:09:48.341Z,5.65
2023-03-22T03:12:21.928Z,5.65
2023-03-22T03:14:51.867Z,5.64
2023-03-22T03:17:56.496Z,5.64
2023-03-22T03:20:39.079Z,5.55
2023-03-22T03:23:14.529Z,5.58
2023-03-22T03:25:49.029Z,5.53
2023-03-22T03:28:23.002Z,5.54
2023-03-22T03:31:01.468Z,5.50
2023-03-22T03:33:31.666Z,5.48
2023-03-22T03:36:03.225Z,5.51
2023-03-22T03:38:34.365Z,5.50
2023-03-22T03:41:05.092Z,5.40
2023-03-22T03:43:34.077Z,5.36
2023-03-22T03:46:02.200Z,5.40
2023-03-22T03:48:33.774Z,5.26
2023-03-22T03:51:02.158Z,5.35
2023-03-22T03:53:30.554Z,5.39
2023-03-22T03:55:58.330Z,5.42
2023-03-22T03:58:30.731Z,5.42
2023-03-22T04:00:58.956Z,5.39
2023-03-22T04:03:27.827Z,5.40
2023-03-22T04:05:56.906Z,5.23
2023-03-22T04:08:24.637Z,5.26
2023-03-22T04:10:52.667Z,5.22
2023-03-22T04:13:21.689Z,5.19
2023-03-22T04:15:53.821Z,5.15
2023-03-22T04:18:21.648Z,5.16
2023-03-22T04:20:53.536Z,5.16
2023-03-22T04:23:23.242Z,5.06
2023-03-22T04:25:51.949Z,5.08
2023-03-22T04:28:20.582Z,5.02
2023-03-22T04:30:52.636Z,5.08
2023-03-22T04:33:23.297Z,4.96
2023-03-22T04:35:57.015Z,4.93
2023-03-22T04:38:25.858Z,4.94
2023-03-22T04:40:55.379Z,5.01
2023-03-22T04:43:24.816Z,5.12
2023-03-22T04:45:54.875Z,5.14
2023-03-22T04:48:24.365Z,5.10
2023-03-22T04:50:53.525Z,5.06
2023-03-22T04:53:27.417Z,5.03
2023-03-22T04:55:59.056Z,5.02
2023-03-22T04:58:27.629Z,5.06
2023-03-22T05:00:55.526Z,5.06
2023-03-22T05:03:23.601Z,5.03
2023-03-22T05:05:57.043Z,4.96
2023-03-22T05:08:26.286Z,4.94
2023-03-22T05:10:55.814Z,4.96
2023-03-22T05:13:25.529Z,5.04
2023-03-22T05:15:54.956Z,5.00
2023-03-22T05:18:27.771Z,5.07
2023-03-22T05:20:57.181Z,5.12
2023-03-22T05:23:25.269Z,5.18
2023-03-22T05:25:54.312Z,5.23
2023-03-22T05:28:22.321Z,5.24
2023-03-22T05:30:51.548Z,5.24
2023-03-22T05:33:22.759Z,5.33
2023-03-22T05:35:51.948Z,5.31
2023-03-22T05:38:22.853Z,5.43
2023-03-22T05:40:51.350Z,5.49
2023-03-22T05:43:22.152Z,5.55
2023-03-22T05:45:51.123Z,5.68
2023-03-22T05:48:22.720Z,5.73
2023-03-22T05:50:50.551Z,5.89
2023-03-22T05:53:18.395Z,6.06
2023-03-22T05:55:46.905Z,6.16
2023-03-22T05:58:30.819Z,6.29
2023-03-22T06:01:01.878Z,6.41
2023-03-22T06:03:43.790Z,6.51
2023-03-22T06:06:18.234Z,6.75
2023-03-22T06:08:46.740Z,6.73
2023-03-22T06:11:14.490Z,6.77
2023-03-22T06:13:42.388Z,6.78
2023-03-22T06:16:11.162Z,7.01
2023-03-22T06:18:39.101Z,7.03
2023-03-22T06:21:07.639Z,7.13
2023-03-22T06:23:36.441Z,7.24
2023-03-22T06:26:07.163Z,7.31
2023-03-22T06:28:38.362Z,7.33
2023-03-22T06:31:10.402Z,7.47
2023-03-22T06:33:39.059Z,7.53
2023-03-22T06:36:07.466Z,7.60
2023-03-22T06:38:35.848Z,7.73
2023-03-22T06:41:04.182Z,7.86
2023-03-22T06:43:32.632Z,7.90
2023-03-22T06:46:01.634Z,8.00
2023-03-22T06:48:31.742Z,8.27
2023-03-22T06:51:02.660Z,8.33
2023-03-22T06:53:31.432Z,8.43
2023-03-22T06:55:59.261Z,8.51
2023-03-22T06:58:27.959Z,8.61
2023-03-22T07:00:57.244Z,8.72
2023-03-22T07:03:24.904Z,8.89
2023-03-22T07:05:53.422Z,9.04
2023-03-22T07:08:21.580Z,9.06
2023-03-22T07:10:51.268Z,9.23
2023-03-22T07:13:19.571Z,9.40
2023-03-22T07:15:48.031Z,9.50
2023-03-22T07:18:17.164Z,9.61
2023-03-22T07:20:45.842Z,10.00
2023-03-22T07:23:13.829Z,9.77
2023-03-22T07:25:43.664Z,9.94
2023-03-22T07:28:12.528Z,10.10
2023-03-22T07:30:40.831Z,10.21
2023-03-22T07:33:12.416Z,10.32
2023-03-22T07:35:41.542Z,10.52
2023-03-22T07:38:09.825Z,10.55
2023-03-22T07:40:41.767Z,10.67
2023-03-22T07:43:13.213Z,10.75
2023-03-22T07:45:41.996Z,10.99
2023-03-22T07:48:15.786Z,11.00
2023-03-22T07:50:45.456Z,11.10
2023-03-22T07:53:14.139Z,11.13
2023-03-22T07:55:44.481Z,11.39
2023-03-22T07:58:12.314Z,11.51
2023-03-22T08:00:40.971Z,11.80
2023-03-22T08:03:15.495Z,11.74
2023-03-22T08:05:44.393Z,12.01
2023-03-22T08:08:13.658Z,11.91
2023-03-22T08:10:41.730Z,11.98
2023-03-22T08:13:09.685Z,12.38
2023-03-22T08:15:38.833Z,12.41
2023-03-22T08:18:08.739Z,12.78
2023-03-22T08:20:38.344Z,13.02
2023-03-22T08:23:11.420Z,13.04
2023-03-22T08:25:55.514Z,13.14
2023-03-22T08:28:23.990Z,13.40
2023-03-22T08:30:51.933Z,13.57
2023-03-22T08:33:22.059Z,13.80
2023-03-22T08:35:51.105Z,13.45
2023-03-22T08:38:19.721Z,13.94
2023-03-22T08:40:48.252Z,14.19
2023-03-22T08:43:18.845Z,14.32
2023-03-22T08:45:47.732Z,14.56
2023-03-22T08:48:16.120Z,14.75
2023-03-22T08:50:45.120Z,14.87
2023-03-22T08:53:15.939Z,15.08
2023-03-22T08:55:47.672Z,15.13
2023-03-22T08:58:23.945Z,15.30
2023-03-22T09:00:53.088Z,15.25
2023-03-22T09:03:24.989Z,15.61
2023-03-22T09:05:53.472Z,15.73
2023-03-22T09:08:22.040Z,15.79
2023-03-22T09:10:52.199Z,16.09
2023-03-22T09:13:20.712Z,16.23
2023-03-22T09:15:48.892Z,16.29
2023-03-22T09:18:17.469Z,16.52
2023-03-22T09:20:46.674Z,16.64
2023-03-22T09:23:17.968Z,16.84
2023-03-22T09:25:46.973Z,17.03
2023-03-22T09:28:17.522Z,17.16
2023-03-22T09:30:45.609Z,17.32
2023-03-22T09:33:13.897Z,17.20
2023-03-22T09:35:43.071Z,16.67
2023-03-22T09:38:13.796Z,17.22
2023-03-22T09:40:52.100Z,17.17
2023-03-22T09:43:20.972Z,17.45
2023-03-22T09:45:50.485Z,17.73
2023-03-22T09:48:23.187Z,17.70
2023-03-22T09:50:53.359Z,17.69
2023-03-22T09:53:24.277Z,17.78
2023-03-22T09:56:00.328Z,18.04
2023-03-22T09:58:34.446Z,18.10
2023-03-22T10:01:14.272Z,18.27
2023-03-22T10:03:54.527Z,18.33
2023-03-22T10:06:28.226Z,18.45
2023-03-22T10:09:27.145Z,18.61
2023-03-22T10:12:22.526Z,18.62
2023-03-22T10:14:56.559Z,18.73
2023-03-22T10:17:25.800Z,18.81
2023-03-22T10:20:08.888Z,18.90
2023-03-22T10:22:40.275Z,18.99
2023-03-22T10:25:10.007Z,17.80
2023-03-22T10:27:37.982Z,17.76
2023-03-22T10:30:21.817Z,18.64
2023-03-22T10:33:04.844Z,18.47
2023-03-22T10:35:32.556Z,18.00
2023-03-22T10:38:02.879Z,17.60
2023-03-22T10:40:33.212Z,17.90
2023-03-22T10:43:06.088Z,17.61
2023-03-22T10:45:35.372Z,18.29
2023-03-22T10:48:27.342Z,18.19
2023-03-22T10:50:55.611Z,18.67
2023-03-22T10:53:44.042Z,18.40
2023-03-22T10:56:15.319Z,18.38
2023-03-22T10:58:43.169Z,18.64
2023-03-22T11:01:17.285Z,19.11
2023-03-22T11:03:49.555Z,19.35
2023-03-22T11:06:23.511Z,19.81
2023-03-22T11:08:54.431Z,19.52
2023-03-22T11:11:35.124Z,19.06
2023-03-22T11:14:14.985Z,20.04
2023-03-22T11:17:20.510Z,20.21
2023-03-22T11:20:02.277Z,19.38
2023-03-22T11:22:41.490Z,20.36
2023-03-22T11:25:21.870Z,19.79
2023-03-22T11:27:52.097Z,19.41
2023-03-22T11:30:28.518Z,19.49
2023-03-22T11:33:03.985Z,19.71
2023-03-22T11:35:32.368Z,18.33
2023-03-22T11:38:02.489Z,18.31
2023-03-22T11:40:36.306Z,18.83
2023-03-22T11:43:20.751Z,19.04
2023-03-22T11:45:57.816Z,18.96
2023-03-22T11:48:33.559Z,19.78
2023-03-22T11:51:20.565Z,19.18
2023-03-22T11:53:49.997Z,20.19
2023-03-22T11:56:30.429Z,20.58
2023-03-22T11:59:08.796Z,20.90
2023-03-22T12:01:43.264Z,21.14
2023-03-22T12:04:18.083Z,20.96
2023-03-22T12:06:45.891Z,20.82
2023-03-22T12:09:33.190Z,20.69
2023-03-22T12:12:03.715Z,20.20
2023-03-22T12:14:51.899Z,20.46
2023-03-22T12:17:36.254Z,19.44
2023-03-22T12:20:18.024Z,18.76
2023-03-22T12:22:52.789Z,19.44
2023-03-22T12:25:35.351Z,18.52
2023-03-22T12:28:07.682Z,19.50
2023-03-22T12:30:49.655Z,20.14
2023-03-22T12:33:30.060Z,20.28
2023-03-22T12:36:03.606Z,19.19
2023-03-22T12:38:48.380Z,19.34
2023-03-22T12:41:22.354Z,19.22
2023-03-22T12:43:54.737Z,19.57
2023-03-22T12:46:58.221Z,19.36
2023-03-22T12:49:47.991Z,19.80
2023-03-22T12:52:21.078Z,19.37
2023-03-22T12:54:50.198Z,19.68
2023-03-22T12:57:18.490Z,18.99
2023-03-22T12:59:49.780Z,18.91
2023-03-22T13:02:32.524Z,19.33
2023-03-22T13:05:04.920Z,19.71
2023-03-22T13:07:41.915Z,19.82
2023-03-22T13:10:32.466Z,19.46
2023-03-22T13:13:21.332Z,19.65
2023-03-22T13:16:13.757Z,19.79
2023-03-22T13:18:44.072Z,19.77
2023-03-22T13:21:15.432Z,19.45
2023-03-22T13:24:05.970Z,18.70
2023-03-22T13:26:38.693Z,18.44
2023-03-22T13:29:16.348Z,18.23
2023-03-22T13:31:47.753Z,18.65
2023-03-22T13:34:19.184Z,19.01
2023-03-22T13:36:54.166Z,19.03
2023-03-22T13:39:25.115Z,18.08
2023-03-22T13:42:07.382Z,17.94
2023-03-22T13:44:40.454Z,17.71
2023-03-22T13:47:38.042Z,17.87
2023-03-22T13:50:11.297Z,17.81
2023-03-22T13:52:52.124Z,18.34
2023-03-22T13:55:41.559Z,18.67
2023-03-22T13:58:48.365Z,18.78
2023-03-22T14:01:22.147Z,18.58
2023-03-22T14:03:50.746Z,18.68
2023-03-22T14:06:24.487Z,18.70
2023-03-22T14:08:57.553Z,18.81
2023-03-22T14:11:40.966Z,19.46
2023-03-22T14:14:16.379Z,19.02
2023-03-22T14:16:47.399Z,18.93
2023-03-22T14:19:29.617Z,19.45
